createdAt,value
2018-08-12T00:03:15.512Z,67.70
2018-08-12T00:08:45.204Z,67.90
2018-08-12T00:14:15.219Z,68.00
2018-08-12T00:19:44.953Z,68.20
2018-08-12T00:25:17.031Z,68.30
2018-08-12T00:30:46.302Z,68.60
2018-08-12T00:36:15.634Z,68.30
2018-08-12T00:41:45.017Z,69.00
2018-08-12T00:47:14.312Z,69.40
2018-08-12T00:52:43.830Z,69.30
2018-08-12T00:58:13.304Z,69.40
2018-08-12T01:03:42.623Z,69.60
2018-08-12T01:09:13.264Z,69.80
2018-08-12T01:14:42.614Z,69.80
2018-08-12T01:20:20.974Z,70.10
2018-08-12T01:25:50.350Z,70.20
2018-08-12T01:31:19.664Z,70.40
2018-08-12T01:36:49.066Z,70.70
2018-08-12T01:42:18.459Z,70.90
2018-08-12T01:47:47.754Z,71.00
2018-08-12T01:53:17.065Z,71.40
2018-08-12T01:58:46.364Z,71.50
2018-08-12T02:04:16.400Z,71.60
2018-08-12T02:09:45.648Z,71.50
2018-08-12T02:15:14.942Z,71.80
2018-08-12T02:20:44.270Z,71.80
2018-08-12T02:26:13.551Z,72.20
2018-08-12T02:31:42.858Z,72.30
2018-08-12T02:37:12.194Z,72.30
2018-08-12T02:42:41.518Z,72.30
2018-08-12T02:48:11.832Z,72.40
2018-08-12T02:53:41.168Z,72.50
2018-08-12T02:59:10.522Z,72.40
2018-08-12T03:04:39.820Z,72.70
2018-08-12T03:10:09.767Z,72.70
2018-08-12T03:15:39.047Z,72.70
2018-08-12T03:21:08.398Z,73.00
2018-08-12T03:26:37.731Z,73.00
2018-08-12T03:32:07.085Z,73.00
2018-08-12T03:37:36.359Z,73.00
2018-08-12T03:43:05.769Z,73.20
2018-08-12T03:48:35.004Z,73.20
2018-08-12T03:54:04.354Z,73.30
2018-08-12T03:59:33.708Z,73.60
2018-08-12T04:05:02.963Z,73.70
2018-08-12T04:10:32.256Z,73.80
2018-08-12T04:16:01.576Z,73.70
2018-08-12T04:21:30.903Z,74.00
2018-08-12T04:27:01.096Z,73.90
2018-08-12T04:32:30.518Z,74.20
2018-08-12T04:37:59.824Z,74.10
2018-08-12T04:43:29.124Z,74.40
2018-08-12T04:48:58.359Z,74.30
2018-08-12T04:54:27.743Z,74.20
2018-08-12T04:59:57.187Z,74.20
2018-08-12T05:05:26.523Z,74.20
2018-08-12T05:10:55.971Z,74.00
2018-08-12T05:16:25.279Z,73.70
2018-08-12T05:21:54.580Z,73.60
2018-08-12T05:27:24.314Z,73.30
2018-08-12T05:32:53.742Z,73.10
2018-08-12T05:38:23.177Z,72.90
2018-08-12T05:43:52.583Z,72.60
2018-08-12T05:49:22.050Z,72.40
2018-08-12T05:54:51.498Z,71.90
2018-08-12T06:00:20.920Z,71.40
2018-08-12T06:05:50.275Z,71.10
2018-08-12T06:11:20.021Z,70.70
2018-08-12T06:16:49.539Z,70.60
2018-08-12T06:22:18.798Z,70.10
2018-08-12T06:27:48.080Z,70.20
2018-08-12T06:33:17.451Z,70.00
2018-08-12T06:38:46.884Z,69.80
2018-08-12T06:44:16.133Z,69.30
2018-08-12T06:49:45.540Z,69.10
2018-08-12T06:55:14.963Z,69.30
2018-08-12T07:00:44.355Z,69.10
2018-08-12T07:06:13.835Z,68.60
2018-08-12T07:11:43.350Z,68.20
2018-08-12T07:17:12.704Z,68.20
2018-08-12T07:22:42.097Z,67.60
2018-08-12T07:28:11.362Z,67.50
2018-08-12T07:33:40.785Z,67.30
2018-08-12T07:39:10.809Z,66.50
2018-08-12T07:44:40.343Z,66.20
2018-08-12T07:50:10.183Z,65.50
2018-08-12T07:55:39.686Z,65.20
2018-08-12T08:01:08.958Z,64.10
2018-08-12T08:06:38.220Z,63.30
2018-08-12T08:12:07.490Z,62.80
2018-08-12T08:17:36.749Z,62.10
2018-08-12T08:23:06.047Z,60.20
2018-08-12T08:28:35.651Z,59.30
2018-08-12T08:34:05.027Z,58.50
2018-08-12T08:39:34.348Z,57.80
2018-08-12T08:45:04.682Z,57.10
2018-08-12T08:50:34.165Z,56.90
2018-08-12T08:56:03.537Z,56.50
2018-08-12T09:01:32.859Z,56.30
2018-08-12T09:07:02.195Z,54.90
2018-08-12T09:12:31.635Z,54.70
2018-08-12T09:18:00.882Z,54.10
2018-08-12T09:23:30.488Z,54.10
2018-08-12T09:29:00.108Z,54.00
2018-08-12T09:34:29.423Z,52.90
2018-08-12T09:39:59.004Z,53.30
2018-08-12T09:45:28.378Z,52.90
2018-08-12T09:50:57.842Z,52.00
2018-08-12T09:56:27.388Z,51.30
2018-08-12T10:01:57.144Z,50.90
2018-08-12T10:07:27.766Z,50.10
2018-08-12T10:12:57.931Z,49.90
2018-08-12T10:18:27.369Z,49.50
2018-08-12T10:23:57.792Z,49.50
2018-08-12T10:29:28.747Z,48.90
2018-08-12T10:35:00.469Z,48.70
2018-08-12T10:40:30.728Z,49.20
2018-08-12T10:46:00.963Z,48.80
2018-08-12T10:51:30.659Z,47.90
2018-08-12T10:57:00.169Z,47.80
2018-08-12T11:02:29.540Z,48.30
2018-08-12T11:07:59.648Z,46.80
2018-08-12T11:13:29.079Z,47.40
2018-08-12T11:18:58.495Z,46.70
2018-08-12T11:24:27.939Z,48.20
2018-08-12T11:29:57.652Z,47.40
2018-08-12T11:35:27.056Z,45.90
2018-08-12T11:40:57.379Z,46.60
2018-08-12T11:46:27.054Z,44.90
2018-08-12T11:51:56.577Z,44.70
2018-08-12T11:57:26.062Z,45.30
2018-08-12T12:02:55.515Z,45.00
2018-08-12T12:08:24.840Z,45.40
2018-08-12T12:13:55.571Z,44.70
2018-08-12T12:19:25.232Z,44.20
2018-08-12T12:24:54.816Z,44.80
2018-08-12T12:30:24.476Z,44.00
2018-08-12T12:35:54.143Z,43.80
2018-08-12T12:41:23.652Z,43.60
2018-08-12T12:46:53.321Z,44.10
2018-08-12T12:52:22.828Z,44.80
2018-08-12T12:57:52.298Z,43.20
2018-08-12T13:03:22.095Z,43.30
2018-08-12T13:08:51.850Z,43.00
2018-08-12T13:14:21.536Z,43.70
2018-08-12T13:19:51.226Z,42.90
2018-08-12T13:25:22.052Z,43.60
2018-08-12T13:30:51.394Z,44.10
2018-08-12T13:36:20.919Z,43.30
2018-08-12T13:41:51.689Z,43.50
2018-08-12T13:47:21.009Z,43.80
2018-08-12T13:52:51.862Z,42.90
2018-08-12T13:58:21.546Z,43.90
2018-08-12T14:03:50.971Z,44.10
2018-08-12T14:09:20.526Z,43.90
2018-08-12T14:14:50.105Z,44.00
2018-08-12T14:20:20.624Z,43.00
2018-08-12T14:25:49.925Z,43.30
2018-08-12T14:31:20.653Z,42.90
2018-08-12T14:36:50.015Z,43.40
2018-08-12T14:42:19.325Z,43.20
2018-08-12T14:47:48.791Z,43.40
2018-08-12T14:53:18.131Z,39.70
2018-08-12T14:58:47.541Z,35.50
2018-08-12T15:04:17.445Z,36.40
2018-08-12T15:09:46.897Z,37.80
2018-08-12T15:15:17.062Z,33.70
2018-08-12T15:20:46.367Z,36.90
2018-08-12T15:26:15.715Z,39.70
2018-08-12T15:31:44.938Z,41.00
2018-08-12T15:37:14.315Z,41.50
2018-08-12T15:42:44.072Z,42.30
2018-08-12T15:58:17.590Z,43.50
2018-08-12T16:03:46.892Z,43.30
2018-08-12T16:09:16.107Z,43.50
2018-08-12T16:14:45.447Z,43.60
2018-08-12T16:20:14.917Z,44.20
2018-08-12T16:25:44.133Z,44.30
2018-08-12T16:31:13.403Z,44.90
2018-08-12T16:36:45.930Z,44.90
2018-08-12T16:42:15.192Z,45.40
2018-08-12T16:47:44.915Z,44.90
2018-08-12T16:53:14.298Z,45.20
2018-08-12T16:58:43.578Z,44.40
2018-08-12T17:04:12.979Z,44.70
2018-08-12T17:09:42.154Z,45.20
2018-08-12T17:15:15.231Z,46.00
2018-08-12T17:20:44.503Z,46.50
2018-08-12T17:26:13.770Z,46.90
2018-08-12T17:31:43.022Z,47.20
2018-08-12T17:37:12.301Z,47.70
2018-08-12T17:42:41.639Z,48.10
2018-08-12T17:48:11.107Z,48.10
2018-08-12T17:53:40.332Z,48.30
2018-08-12T17:59:10.750Z,48.90
2018-08-12T18:04:40.023Z,49.20
2018-08-12T18:10:10.265Z,49.00
2018-08-12T18:15:39.559Z,49.60
2018-08-12T18:21:08.989Z,49.70
2018-08-12T18:26:38.340Z,50.40
2018-08-12T18:32:08.463Z,50.70
2018-08-12T18:37:38.321Z,51.20
2018-08-12T18:43:07.830Z,51.20
2018-08-12T18:48:38.012Z,51.90
2018-08-12T18:54:07.291Z,51.90
2018-08-12T18:59:36.563Z,52.20
2018-08-12T19:05:06.823Z,52.20
2018-08-12T19:10:36.119Z,52.50
2018-08-12T19:16:05.494Z,52.90
2018-08-12T19:21:34.797Z,53.00
2018-08-12T19:27:04.116Z,53.60
2018-08-12T19:32:33.488Z,53.90
2018-08-12T19:38:03.645Z,54.10
2018-08-12T19:43:33.172Z,54.40
2018-08-12T19:49:02.629Z,55.00
2018-08-12T19:54:32.179Z,55.10
2018-08-12T20:00:01.628Z,56.00
2018-08-12T20:05:31.097Z,56.50
2018-08-12T20:11:00.486Z,56.70
2018-08-12T20:16:29.868Z,57.60
2018-08-12T20:21:59.227Z,57.60
2018-08-12T20:27:28.622Z,57.80
2018-08-12T20:32:57.955Z,58.10
2018-08-12T20:38:27.310Z,58.50
2018-08-12T20:43:56.685Z,59.10
2018-08-12T20:49:26.136Z,59.80
2018-08-12T20:54:55.555Z,59.10
2018-08-12T21:00:25.322Z,59.60
2018-08-12T21:05:55.164Z,59.70
2018-08-12T21:11:24.996Z,60.00
2018-08-12T21:16:55.917Z,60.90
2018-08-12T21:22:25.374Z,61.20
2018-08-12T21:27:54.739Z,61.40
2018-08-12T21:33:25.353Z,61.80
2018-08-12T21:38:54.913Z,61.90
2018-08-12T21:44:24.353Z,62.30
2018-08-12T21:49:53.664Z,62.00
2018-08-12T21:55:23.127Z,62.00
2018-08-12T22:00:53.998Z,62.10
2018-08-12T22:06:23.565Z,62.30
2018-08-12T22:11:52.951Z,62.60
2018-08-12T22:17:22.618Z,62.90
2018-08-12T22:22:51.902Z,63.10
2018-08-12T22:28:22.324Z,63.30
2018-08-12T22:33:52.219Z,63.70
2018-08-12T22:39:21.488Z,64.10
2018-08-12T22:44:50.787Z,64.70
2018-08-12T22:50:20.183Z,65.00
2018-08-12T22:55:49.437Z,65.30
2018-08-12T23:01:18.842Z,65.70
2018-08-12T23:06:48.080Z,66.10
2018-08-12T23:12:17.353Z,66.50
2018-08-12T23:17:46.669Z,66.80
2018-08-12T23:23:15.895Z,67.20
2018-08-12T23:28:45.524Z,67.50
2018-08-12T23:34:14.775Z,67.70
2018-08-12T23:39:44.106Z,68.00
2018-08-12T23:45:13.366Z,68.10
2018-08-12T23:50:42.651Z,68.50
2018-08-12T23:56:11.883Z,68.50
